sensor_id;sensor_type;location;lat;lon;timestamp;P1;durP1;ratioP1;P2;durP2;ratioP2
25079;SDS011;13071;48.868;9.996;2023-08-12T00:01:37;5.30;;;3.50;;
25079;SDS011;13071;48.868;9.996;2023-08-12T00:04:04;4.90;;;3.78;;
25079;SDS011;13071;48.868;9.996;2023-08-12T00:06:31;4.38;;;3.65;;
25079;SDS011;13071;48.868;9.996;2023-08-12T00:08:58;5.72;;;3.78;;
25079;SDS011;13071;48.868;9.996;2023-08-12T00:11:26;5.03;;;4.00;;
25079;SDS011;13071;48.868;9.996;2023-08-12T00:13:52;4.10;;;3.70;;
25079;SDS011;13071;48.868;9.996;2023-08-12T00:16:19;6.82;;;3.45;;
25079;SDS011;13071;48.868;9.996;2023-08-12T00:18:46;8.27;;;3.50;;
25079;SDS011;13071;48.868;9.996;2023-08-12T00:21:12;3.95;;;3.38;;
25079;SDS011;13071;48.868;9.996;2023-08-12T00:23:40;4.00;;;3.50;;
25079;SDS011;13071;48.868;9.996;2023-08-12T00:26:08;4.80;;;3.53;;
25079;SDS011;13071;48.868;9.996;2023-08-12T00:28:36;3.85;;;3.20;;
25079;SDS011;13071;48.868;9.996;2023-08-12T00:31:03;4.32;;;3.10;;
25079;SDS011;13071;48.868;9.996;2023-08-12T00:33:30;5.47;;;3.83;;
25079;SDS011;13071;48.868;9.996;2023-08-12T00:35:56;7.45;;;3.35;;
25079;SDS011;13071;48.868;9.996;2023-08-12T00:38:23;5.72;;;3.05;;
25079;SDS011;13071;48.868;9.996;2023-08-12T00:40:50;4.30;;;3.55;;
25079;SDS011;13071;48.868;9.996;2023-08-12T00:43:17;4.10;;;3.35;;
25079;SDS011;13071;48.868;9.996;2023-08-12T00:45:45;3.55;;;2.90;;
25079;SDS011;13071;48.868;9.996;2023-08-12T00:48:11;5.57;;;3.42;;
25079;SDS011;13071;48.868;9.996;2023-08-12T00:50:39;6.25;;;3.53;;
25079;SDS011;13071;48.868;9.996;2023-08-12T00:53:06;3.40;;;3.10;;
25079;SDS011;13071;48.868;9.996;2023-08-12T00:55:33;4.55;;;3.30;;
25079;SDS011;13071;48.868;9.996;2023-08-12T00:58:00;6.13;;;3.65;;
25079;SDS011;13071;48.868;9.996;2023-08-12T01:00:29;4.85;;;3.45;;
25079;SDS011;13071;48.868;9.996;2023-08-12T01:02:58;4.38;;;3.25;;
25079;SDS011;13071;48.868;9.996;2023-08-12T01:05:26;4.15;;;3.75;;
25079;SDS011;13071;48.868;9.996;2023-08-12T01:07:54;5.57;;;3.42;;
25079;SDS011;13071;48.868;9.996;2023-08-12T01:10:21;4.97;;;3.90;;
25079;SDS011;13071;48.868;9.996;2023-08-12T01:12:52;5.85;;;4.15;;
25079;SDS011;13071;48.868;9.996;2023-08-12T01:15:25;3.95;;;3.30;;
25079;SDS011;13071;48.868;9.996;2023-08-12T01:17:54;4.25;;;3.45;;
25079;SDS011;13071;48.868;9.996;2023-08-12T01:20:24;4.43;;;3.60;;
25079;SDS011;13071;48.868;9.996;2023-08-12T01:22:52;4.07;;;3.58;;
25079;SDS011;13071;48.868;9.996;2023-08-12T01:25:24;5.97;;;3.72;;
25079;SDS011;13071;48.868;9.996;2023-08-12T01:27:51;6.60;;;3.53;;
25079;SDS011;13071;48.868;9.996;2023-08-12T01:30:18;5.32;;;4.03;;
25079;SDS011;13071;48.868;9.996;2023-08-12T01:32:49;6.95;;;4.10;;
25079;SDS011;13071;48.868;9.996;2023-08-12T01:35:23;3.90;;;3.50;;
25079;SDS011;13071;48.868;9.996;2023-08-12T01:37:52;5.20;;;3.55;;
25079;SDS011;13071;48.868;9.996;2023-08-12T01:40:21;4.57;;;3.30;;
25079;SDS011;13071;48.868;9.996;2023-08-12T01:42:50;4.03;;;3.63;;
25079;SDS011;13071;48.868;9.996;2023-08-12T01:45:18;6.85;;;4.07;;
25079;SDS011;13071;48.868;9.996;2023-08-12T01:47:45;4.55;;;3.30;;
25079;SDS011;13071;48.868;9.996;2023-08-12T01:50:12;4.97;;;3.70;;
25079;SDS011;13071;48.868;9.996;2023-08-12T01:52:40;5.35;;;3.67;;
25079;SDS011;13071;48.868;9.996;2023-08-12T01:55:07;4.78;;;3.80;;
25079;SDS011;13071;48.868;9.996;2023-08-12T01:57:34;4.72;;;3.85;;
25079;SDS011;13071;48.868;9.996;2023-08-12T02:00:02;5.43;;;3.97;;
25079;SDS011;13071;48.868;9.996;2023-08-12T02:02:30;4.50;;;3.80;;
25079;SDS011;13071;48.868;9.996;2023-08-12T02:04:57;5.97;;;3.80;;
25079;SDS011;13071;48.868;9.996;2023-08-12T02:07:23;8.45;;;4.00;;
25079;SDS011;13071;48.868;9.996;2023-08-12T02:09:50;4.28;;;3.50;;
25079;SDS011;13071;48.868;9.996;2023-08-12T02:12:17;5.05;;;3.80;;
25079;SDS011;13071;48.868;9.996;2023-08-12T02:14:43;4.20;;;3.58;;
25079;SDS011;13071;48.868;9.996;2023-08-12T02:17:11;4.22;;;3.83;;
25079;SDS011;13071;48.868;9.996;2023-08-12T02:19:38;5.22;;;3.92;;
25079;SDS011;13071;48.868;9.996;2023-08-12T02:22:05;4.55;;;3.90;;
25079;SDS011;13071;48.868;9.996;2023-08-12T02:24:31;5.15;;;3.63;;
25079;SDS011;13071;48.868;9.996;2023-08-12T02:26:58;5.40;;;3.80;;
25079;SDS011;13071;48.868;9.996;2023-08-12T02:29:25;5.90;;;3.67;;
25079;SDS011;13071;48.868;9.996;2023-08-12T02:31:51;4.97;;;3.75;;
25079;SDS011;13071;48.868;9.996;2023-08-12T02:34:19;3.92;;;3.40;;
25079;SDS011;13071;48.868;9.996;2023-08-12T02:36:46;8.38;;;4.13;;
25079;SDS011;13071;48.868;9.996;2023-08-12T02:39:13;4.13;;;3.10;;
25079;SDS011;13071;48.868;9.996;2023-08-12T02:41:39;8.77;;;3.70;;
25079;SDS011;13071;48.868;9.996;2023-08-12T02:44:06;3.50;;;3.20;;
25079;SDS011;13071;48.868;9.996;2023-08-12T02:46:33;4.28;;;3.38;;
25079;SDS011;13071;48.868;9.996;2023-08-12T02:48:59;5.70;;;3.50;;
25079;SDS011;13071;48.868;9.996;2023-08-12T02:51:27;7.32;;;3.78;;
25079;SDS011;13071;48.868;9.996;2023-08-12T02:53:54;4.07;;;3.58;;
25079;SDS011;13071;48.868;9.996;2023-08-12T02:56:21;7.22;;;3.10;;
25079;SDS011;13071;48.868;9.996;2023-08-12T02:58:47;5.47;;;4.13;;
25079;SDS011;13071;48.868;9.996;2023-08-12T03:01:14;6.15;;;4.28;;
25079;SDS011;13071;48.868;9.996;2023-08-12T03:03:41;7.13;;;4.13;;
25079;SDS011;13071;48.868;9.996;2023-08-12T03:06:07;4.47;;;4.00;;
25079;SDS011;13071;48.868;9.996;2023-08-12T03:08:35;6.05;;;4.72;;
25079;SDS011;13071;48.868;9.996;2023-08-12T03:11:02;5.50;;;4.35;;
25079;SDS011;13071;48.868;9.996;2023-08-12T03:13:29;5.25;;;4.22;;
25079;SDS011;13071;48.868;9.996;2023-08-12T03:15:57;8.93;;;4.60;;
25079;SDS011;13071;48.868;9.996;2023-08-12T03:18:23;6.15;;;4.72;;
25079;SDS011;13071;48.868;9.996;2023-08-12T03:20:50;5.70;;;4.53;;
25079;SDS011;13071;48.868;9.996;2023-08-12T03:23:17;5.57;;;4.15;;
25079;SDS011;13071;48.868;9.996;2023-08-12T03:25:46;6.50;;;4.68;;
25079;SDS011;13071;48.868;9.996;2023-08-12T03:28:13;5.20;;;3.90;;
25079;SDS011;13071;48.868;9.996;2023-08-12T03:30:40;6.40;;;4.10;;
25079;SDS011;13071;48.868;9.996;2023-08-12T03:33:06;7.75;;;3.85;;
25079;SDS011;13071;48.868;9.996;2023-08-12T03:35:33;4.70;;;3.70;;
25079;SDS011;13071;48.868;9.996;2023-08-12T03:38:00;5.40;;;4.32;;
25079;SDS011;13071;48.868;9.996;2023-08-12T03:40:26;5.35;;;4.47;;
25079;SDS011;13071;48.868;9.996;2023-08-12T03:42:54;4.43;;;4.03;;
25079;SDS011;13071;48.868;9.996;2023-08-12T03:45:21;6.53;;;4.07;;
25079;SDS011;13071;48.868;9.996;2023-08-12T03:47:48;6.20;;;4.13;;
25079;SDS011;13071;48.868;9.996;2023-08-12T03:50:14;6.15;;;4.40;;
25079;SDS011;13071;48.868;9.996;2023-08-12T03:52:41;4.93;;;4.03;;
25079;SDS011;13071;48.868;9.996;2023-08-12T03:55:08;7.32;;;4.18;;
25079;SDS011;13071;48.868;9.996;2023-08-12T03:57:35;6.78;;;4.20;;
25079;SDS011;13071;48.868;9.996;2023-08-12T04:00:04;4.60;;;3.97;;
25079;SDS011;13071;48.868;9.996;2023-08-12T04:02:33;6.97;;;4.25;;
25079;SDS011;13071;48.868;9.996;2023-08-12T04:04:59;4.70;;;3.88;;
25079;SDS011;13071;48.868;9.996;2023-08-12T04:07:26;4.22;;;3.72;;
25079;SDS011;13071;48.868;9.996;2023-08-12T04:09:53;5.55;;;4.15;;
25079;SDS011;13071;48.868;9.996;2023-08-12T04:12:19;7.85;;;4.00;;
25079;SDS011;13071;48.868;9.996;2023-08-12T04:14:46;5.00;;;4.10;;
25079;SDS011;13071;48.868;9.996;2023-08-12T04:17:18;6.15;;;4.18;;
25079;SDS011;13071;48.868;9.996;2023-08-12T04:19:45;7.70;;;3.83;;
25079;SDS011;13071;48.868;9.996;2023-08-12T04:22:11;4.93;;;3.80;;
25079;SDS011;13071;48.868;9.996;2023-08-12T04:24:38;5.18;;;3.65;;
25079;SDS011;13071;48.868;9.996;2023-08-12T04:27:05;4.80;;;3.60;;
25079;SDS011;13071;48.868;9.996;2023-08-12T04:29:31;6.70;;;3.80;;
25079;SDS011;13071;48.868;9.996;2023-08-12T04:31:58;4.53;;;3.47;;
25079;SDS011;13071;48.868;9.996;2023-08-12T04:34:26;5.13;;;3.88;;
25079;SDS011;13071;48.868;9.996;2023-08-12T04:36:53;5.95;;;4.18;;
25079;SDS011;13071;48.868;9.996;2023-08-12T04:39:19;6.05;;;4.07;;
25079;SDS011;13071;48.868;9.996;2023-08-12T04:41:47;6.93;;;3.97;;
25079;SDS011;13071;48.868;9.996;2023-08-12T04:44:14;6.13;;;4.20;;
25079;SDS011;13071;48.868;9.996;2023-08-12T04:46:41;4.57;;;3.65;;
25079;SDS011;13071;48.868;9.996;2023-08-12T04:49:07;5.88;;;3.92;;
25079;SDS011;13071;48.868;9.996;2023-08-12T04:51:35;4.30;;;3.90;;
25079;SDS011;13071;48.868;9.996;2023-08-12T04:54:02;7.55;;;4.00;;
25079;SDS011;13071;48.868;9.996;2023-08-12T04:56:29;5.38;;;4.20;;
25079;SDS011;13071;48.868;9.996;2023-08-12T04:58:56;5.20;;;4.05;;
25079;SDS011;13071;48.868;9.996;2023-08-12T05:01:23;5.00;;;3.85;;
25079;SDS011;13071;48.868;9.996;2023-08-12T05:03:49;4.00;;;3.60;;
25079;SDS011;13071;48.868;9.996;2023-08-12T05:06:16;4.35;;;3.72;;
25079;SDS011;13071;48.868;9.996;2023-08-12T05:08:44;7.13;;;3.97;;
25079;SDS011;13071;48.868;9.996;2023-08-12T05:11:11;8.20;;;4.30;;
25079;SDS011;13071;48.868;9.996;2023-08-12T05:13:37;5.22;;;4.50;;
25079;SDS011;13071;48.868;9.996;2023-08-12T05:16:04;12.60;;;4.45;;
25079;SDS011;13071;48.868;9.996;2023-08-12T05:18:31;10.38;;;4.25;;
25079;SDS011;13071;48.868;9.996;2023-08-12T05:20:57;5.88;;;4.38;;
25079;SDS011;13071;48.868;9.996;2023-08-12T05:23:24;7.88;;;4.30;;
25079;SDS011;13071;48.868;9.996;2023-08-12T05:25:52;6.32;;;4.70;;
25079;SDS011;13071;48.868;9.996;2023-08-12T05:28:19;4.32;;;3.50;;
25079;SDS011;13071;48.868;9.996;2023-08-12T05:30:45;8.38;;;4.18;;
25079;SDS011;13071;48.868;9.996;2023-08-12T05:33:12;5.20;;;3.97;;
25079;SDS011;13071;48.868;9.996;2023-08-12T05:35:39;7.15;;;4.13;;
25079;SDS011;13071;48.868;9.996;2023-08-12T05:38:05;9.73;;;4.43;;
25079;SDS011;13071;48.868;9.996;2023-08-12T05:40:32;6.28;;;4.72;;
25079;SDS011;13071;48.868;9.996;2023-08-12T05:43:00;4.78;;;4.10;;
25079;SDS011;13071;48.868;9.996;2023-08-12T05:45:27;5.50;;;4.35;;
25079;SDS011;13071;48.868;9.996;2023-08-12T05:47:54;6.40;;;4.30;;
25079;SDS011;13071;48.868;9.996;2023-08-12T05:50:20;5.38;;;3.90;;
25079;SDS011;13071;48.868;9.996;2023-08-12T05:52:47;9.18;;;4.63;;
25079;SDS011;13071;48.868;9.996;2023-08-12T05:55:14;8.48;;;4.25;;
25079;SDS011;13071;48.868;9.996;2023-08-12T05:57:41;6.05;;;4.20;;
25079;SDS011;13071;48.868;9.996;2023-08-12T06:00:09;4.30;;;3.75;;
25079;SDS011;13071;48.868;9.996;2023-08-12T06:02:37;6.35;;;4.30;;
25079;SDS011;13071;48.868;9.996;2023-08-12T06:05:03;4.65;;;3.92;;
25079;SDS011;13071;48.868;9.996;2023-08-12T06:07:31;5.35;;;4.20;;
25079;SDS011;13071;48.868;9.996;2023-08-12T06:09:57;6.03;;;4.50;;
25079;SDS011;13071;48.868;9.996;2023-08-12T06:12:24;6.28;;;4.45;;
25079;SDS011;13071;48.868;9.996;2023-08-12T06:14:51;5.63;;;3.90;;
25079;SDS011;13071;48.868;9.996;2023-08-12T06:17:19;4.75;;;3.95;;
25079;SDS011;13071;48.868;9.996;2023-08-12T06:19:46;5.82;;;4.30;;
25079;SDS011;13071;48.868;9.996;2023-08-12T06:22:12;4.60;;;3.80;;
25079;SDS011;13071;48.868;9.996;2023-08-12T06:24:39;4.75;;;3.78;;
25079;SDS011;13071;48.868;9.996;2023-08-12T06:27:06;4.57;;;3.92;;
25079;SDS011;13071;48.868;9.996;2023-08-12T06:29:32;5.13;;;3.75;;
25079;SDS011;13071;48.868;9.996;2023-08-12T06:31:59;8.93;;;4.32;;
25079;SDS011;13071;48.868;9.996;2023-08-12T06:34:27;5.88;;;4.00;;
25079;SDS011;13071;48.868;9.996;2023-08-12T06:36:54;5.65;;;4.38;;
25079;SDS011;13071;48.868;9.996;2023-08-12T06:39:20;7.90;;;4.47;;
25079;SDS011;13071;48.868;9.996;2023-08-12T06:41:47;5.60;;;4.15;;
25079;SDS011;13071;48.868;9.996;2023-08-12T06:44:14;6.07;;;4.60;;
25079;SDS011;13071;48.868;9.996;2023-08-12T06:46:41;4.47;;;4.05;;
25079;SDS011;13071;48.868;9.996;2023-08-12T06:49:08;5.80;;;4.10;;
25079;SDS011;13071;48.868;9.996;2023-08-12T06:51:36;8.52;;;3.78;;
25079;SDS011;13071;48.868;9.996;2023-08-12T06:54:03;4.65;;;3.60;;
25079;SDS011;13071;48.868;9.996;2023-08-12T06:56:30;8.40;;;4.00;;
25079;SDS011;13071;48.868;9.996;2023-08-12T06:58:57;6.10;;;3.58;;
25079;SDS011;13071;48.868;9.996;2023-08-12T07:01:24;6.28;;;3.90;;
25079;SDS011;13071;48.868;9.996;2023-08-12T07:03:51;4.22;;;3.58;;
25079;SDS011;13071;48.868;9.996;2023-08-12T07:06:17;5.38;;;3.40;;
25079;SDS011;13071;48.868;9.996;2023-08-12T07:08:46;4.63;;;3.90;;
25079;SDS011;13071;48.868;9.996;2023-08-12T07:11:12;6.53;;;4.43;;
25079;SDS011;13071;48.868;9.996;2023-08-12T07:13:39;4.55;;;3.60;;
25079;SDS011;13071;48.868;9.996;2023-08-12T07:16:07;6.28;;;3.90;;
25079;SDS011;13071;48.868;9.996;2023-08-12T07:18:34;4.35;;;3.95;;
25079;SDS011;13071;48.868;9.996;2023-08-12T07:21:01;4.45;;;3.75;;
25079;SDS011;13071;48.868;9.996;2023-08-12T07:23:28;3.95;;;3.55;;
25079;SDS011;13071;48.868;9.996;2023-08-12T07:25:56;4.65;;;3.80;;
25079;SDS011;13071;48.868;9.996;2023-08-12T07:28:23;5.78;;;3.83;;
25079;SDS011;13071;48.868;9.996;2023-08-12T07:30:49;5.85;;;4.00;;
25079;SDS011;13071;48.868;9.996;2023-08-12T07:33:17;4.57;;;3.50;;
25079;SDS011;13071;48.868;9.996;2023-08-12T07:35:44;4.15;;;3.70;;
25079;SDS011;13071;48.868;9.996;2023-08-12T07:38:11;5.75;;;3.88;;
25079;SDS011;13071;48.868;9.996;2023-08-12T07:40:37;4.18;;;3.42;;
25079;SDS011;13071;48.868;9.996;2023-08-12T07:43:05;4.70;;;3.40;;
25079;SDS011;13071;48.868;9.996;2023-08-12T07:45:32;8.68;;;3.97;;
25079;SDS011;13071;48.868;9.996;2023-08-12T07:47:59;5.13;;;3.78;;
25079;SDS011;13071;48.868;9.996;2023-08-12T07:50:26;5.22;;;4.20;;
25079;SDS011;13071;48.868;9.996;2023-08-12T07:52:52;4.35;;;3.25;;
25079;SDS011;13071;48.868;9.996;2023-08-12T07:55:19;6.78;;;3.95;;
25079;SDS011;13071;48.868;9.996;2023-08-12T07:57:46;4.43;;;3.63;;
25079;SDS011;13071;48.868;9.996;2023-08-12T08:00:14;4.50;;;3.30;;
25079;SDS011;13071;48.868;9.996;2023-08-12T08:02:41;7.30;;;4.07;;
25079;SDS011;13071;48.868;9.996;2023-08-12T08:05:08;4.97;;;4.22;;
25079;SDS011;13071;48.868;9.996;2023-08-12T08:07:35;5.10;;;4.07;;
25079;SDS011;13071;48.868;9.996;2023-08-12T08:10:01;4.50;;;3.92;;
25079;SDS011;13071;48.868;9.996;2023-08-12T08:12:28;7.47;;;3.70;;
25079;SDS011;13071;48.868;9.996;2023-08-12T08:14:55;4.63;;;3.80;;
25079;SDS011;13071;48.868;9.996;2023-08-12T08:17:23;3.85;;;3.20;;
25079;SDS011;13071;48.868;9.996;2023-08-12T08:19:50;6.72;;;3.63;;
25079;SDS011;13071;48.868;9.996;2023-08-12T08:22:17;5.65;;;3.85;;
25079;SDS011;13071;48.868;9.996;2023-08-12T08:24:44;3.92;;;3.40;;
25079;SDS011;13071;48.868;9.996;2023-08-12T08:27:11;6.97;;;3.80;;
25079;SDS011;13071;48.868;9.996;2023-08-12T08:29:40;5.80;;;3.70;;
25079;SDS011;13071;48.868;9.996;2023-08-12T08:32:07;4.57;;;3.67;;
25079;SDS011;13071;48.868;9.996;2023-08-12T08:34:35;11.52;;;4.13;;
25079;SDS011;13071;48.868;9.996;2023-08-12T08:37:03;6.95;;;4.78;;
25079;SDS011;13071;48.868;9.996;2023-08-12T08:39:30;7.28;;;5.78;;
25079;SDS011;13071;48.868;9.996;2023-08-12T08:41:56;8.93;;;5.78;;
25079;SDS011;13071;48.868;9.996;2023-08-12T08:44:25;7.93;;;5.82;;
25079;SDS011;13071;48.868;9.996;2023-08-12T08:46:55;6.95;;;5.43;;
25079;SDS011;13071;48.868;9.996;2023-08-12T08:49:24;7.65;;;5.68;;
25079;SDS011;13071;48.868;9.996;2023-08-12T08:51:53;6.15;;;5.05;;
25079;SDS011;13071;48.868;9.996;2023-08-12T08:54:20;4.60;;;4.20;;
25079;SDS011;13071;48.868;9.996;2023-08-12T08:56:47;6.53;;;4.75;;
25079;SDS011;13071;48.868;9.996;2023-08-12T08:59:15;7.40;;;5.00;;
25079;SDS011;13071;48.868;9.996;2023-08-12T09:01:42;9.75;;;5.05;;
25079;SDS011;13071;48.868;9.996;2023-08-12T09:04:12;6.93;;;4.50;;
25079;SDS011;13071;48.868;9.996;2023-08-12T09:06:40;4.78;;;4.28;;
25079;SDS011;13071;48.868;9.996;2023-08-12T09:09:10;5.45;;;4.55;;
25079;SDS011;13071;48.868;9.996;2023-08-12T09:11:38;7.10;;;5.10;;
25079;SDS011;13071;48.868;9.996;2023-08-12T09:14:05;6.35;;;5.03;;
25079;SDS011;13071;48.868;9.996;2023-08-12T09:16:33;6.70;;;5.18;;
25079;SDS011;13071;48.868;9.996;2023-08-12T09:19:00;5.60;;;4.72;;
25079;SDS011;13071;48.868;9.996;2023-08-12T09:21:27;4.60;;;3.92;;
25079;SDS011;13071;48.868;9.996;2023-08-12T09:23:53;6.15;;;4.10;;
25079;SDS011;13071;48.868;9.996;2023-08-12T09:26:22;7.28;;;4.20;;
25079;SDS011;13071;48.868;9.996;2023-08-12T09:28:49;4.97;;;3.42;;
25079;SDS011;13071;48.868;9.996;2023-08-12T09:31:22;5.93;;;4.38;;
25079;SDS011;13071;48.868;9.996;2023-08-12T09:33:50;4.60;;;4.03;;
25079;SDS011;13071;48.868;9.996;2023-08-12T09:36:17;4.43;;;4.03;;
25079;SDS011;13071;48.868;9.996;2023-08-12T09:38:44;4.82;;;3.88;;
25079;SDS011;13071;48.868;9.996;2023-08-12T09:41:11;3.97;;;3.45;;
25079;SDS011;13071;48.868;9.996;2023-08-12T09:43:41;4.18;;;3.78;;
25079;SDS011;13071;48.868;9.996;2023-08-12T09:46:10;4.68;;;4.18;;
25079;SDS011;13071;48.868;9.996;2023-08-12T09:48:38;5.30;;;3.97;;
25079;SDS011;13071;48.868;9.996;2023-08-12T09:51:05;6.10;;;3.92;;
25079;SDS011;13071;48.868;9.996;2023-08-12T09:53:32;3.58;;;3.28;;
25079;SDS011;13071;48.868;9.996;2023-08-12T09:56:00;8.27;;;3.50;;
25079;SDS011;13071;48.868;9.996;2023-08-12T09:58:32;4.53;;;3.78;;
25079;SDS011;13071;48.868;9.996;2023-08-12T10:01:02;6.82;;;3.90;;
25079;SDS011;13071;48.868;9.996;2023-08-12T10:03:29;4.72;;;3.63;;
25079;SDS011;13071;48.868;9.996;2023-08-12T10:05:58;4.10;;;3.50;;
25079;SDS011;13071;48.868;9.996;2023-08-12T10:08:26;6.93;;;5.05;;
25079;SDS011;13071;48.868;9.996;2023-08-12T10:10:54;3.63;;;3.25;;
25079;SDS011;13071;48.868;9.996;2023-08-12T10:13:21;4.65;;;3.80;;
25079;SDS011;13071;48.868;9.996;2023-08-12T10:15:48;6.50;;;3.60;;
25079;SDS011;13071;48.868;9.996;2023-08-12T10:18:16;6.28;;;3.58;;
25079;SDS011;13071;48.868;9.996;2023-08-12T10:20:44;3.85;;;3.45;;
25079;SDS011;13071;48.868;9.996;2023-08-12T10:23:12;3.63;;;3.28;;
25079;SDS011;13071;48.868;9.996;2023-08-12T10:25:41;5.18;;;3.47;;
25079;SDS011;13071;48.868;9.996;2023-08-12T10:28:09;3.42;;;3.13;;
25079;SDS011;13071;48.868;9.996;2023-08-12T10:30:37;14.00;;;3.15;;
25079;SDS011;13071;48.868;9.996;2023-08-12T10:33:06;8.70;;;3.53;;
25079;SDS011;13071;48.868;9.996;2023-08-12T10:35:41;12.15;;;3.50;;
25079;SDS011;13071;48.868;9.996;2023-08-12T10:38:11;13.27;;;3.35;;
25079;SDS011;13071;48.868;9.996;2023-08-12T10:40:40;4.22;;;3.30;;
25079;SDS011;13071;48.868;9.996;2023-08-12T10:43:07;14.20;;;3.67;;
25079;SDS011;13071;48.868;9.996;2023-08-12T10:45:40;4.40;;;3.25;;
25079;SDS011;13071;48.868;9.996;2023-08-12T10:48:18;5.50;;;3.50;;
25079;SDS011;13071;48.868;9.996;2023-08-12T10:50:51;4.78;;;3.50;;
25079;SDS011;13071;48.868;9.996;2023-08-12T10:53:20;4.82;;;3.70;;
25079;SDS011;13071;48.868;9.996;2023-08-12T10:55:48;4.50;;;3.40;;
25079;SDS011;13071;48.868;9.996;2023-08-12T10:58:23;4.80;;;3.10;;
25079;SDS011;13071;48.868;9.996;2023-08-12T11:00:53;3.20;;;2.90;;
25079;SDS011;13071;48.868;9.996;2023-08-12T11:03:20;3.22;;;2.83;;
25079;SDS011;13071;48.868;9.996;2023-08-12T11:05:48;4.88;;;2.70;;
25079;SDS011;13071;48.868;9.996;2023-08-12T11:08:15;4.15;;;3.22;;
25079;SDS011;13071;48.868;9.996;2023-08-12T11:10:42;8.25;;;2.97;;
25079;SDS011;13071;48.868;9.996;2023-08-12T11:13:09;4.25;;;3.20;;
25079;SDS011;13071;48.868;9.996;2023-08-12T11:15:37;6.78;;;3.20;;
25079;SDS011;13071;48.868;9.996;2023-08-12T11:18:07;6.22;;;3.45;;
25079;SDS011;13071;48.868;9.996;2023-08-12T11:20:34;4.90;;;3.20;;
25079;SDS011;13071;48.868;9.996;2023-08-12T11:23:04;10.15;;;3.50;;
25079;SDS011;13071;48.868;9.996;2023-08-12T11:25:32;8.98;;;3.15;;
25079;SDS011;13071;48.868;9.996;2023-08-12T11:28:00;9.50;;;2.90;;
25079;SDS011;13071;48.868;9.996;2023-08-12T11:30:27;9.43;;;3.42;;
25079;SDS011;13071;48.868;9.996;2023-08-12T11:32:55;15.73;;;3.53;;
25079;SDS011;13071;48.868;9.996;2023-08-12T11:35:22;3.28;;;2.72;;
25079;SDS011;13071;48.868;9.996;2023-08-12T11:37:50;5.07;;;3.15;;
25079;SDS011;13071;48.868;9.996;2023-08-12T11:40:20;4.32;;;2.95;;
25079;SDS011;13071;48.868;9.996;2023-08-12T11:42:47;7.35;;;3.20;;
25079;SDS011;13071;48.868;9.996;2023-08-12T11:45:16;5.75;;;3.03;;
25079;SDS011;13071;48.868;9.996;2023-08-12T11:47:43;11.07;;;5.55;;
25079;SDS011;13071;48.868;9.996;2023-08-12T11:50:12;10.57;;;4.45;;
25079;SDS011;13071;48.868;9.996;2023-08-12T11:52:39;5.38;;;3.53;;
25079;SDS011;13071;48.868;9.996;2023-08-12T11:55:06;4.22;;;2.97;;
25079;SDS011;13071;48.868;9.996;2023-08-12T11:57:37;3.78;;;2.47;;
25079;SDS011;13071;48.868;9.996;2023-08-12T12:00:07;2.50;;;2.30;;
25079;SDS011;13071;48.868;9.996;2023-08-12T12:02:38;2.58;;;2.38;;
25079;SDS011;13071;48.868;9.996;2023-08-12T12:05:07;3.50;;;2.40;;
25079;SDS011;13071;48.868;9.996;2023-08-12T12:07:34;5.03;;;2.55;;
25079;SDS011;13071;48.868;9.996;2023-08-12T12:10:01;3.10;;;2.40;;
25079;SDS011;13071;48.868;9.996;2023-08-12T12:12:28;3.38;;;2.50;;
25079;SDS011;13071;48.868;9.996;2023-08-12T12:14:56;3.13;;;2.45;;
25079;SDS011;13071;48.868;9.996;2023-08-12T12:17:23;3.97;;;2.63;;
25079;SDS011;13071;48.868;9.996;2023-08-12T12:19:52;5.78;;;2.42;;
25079;SDS011;13071;48.868;9.996;2023-08-12T12:22:25;4.80;;;2.72;;
25079;SDS011;13071;48.868;9.996;2023-08-12T12:24:53;2.45;;;2.22;;
25079;SDS011;13071;48.868;9.996;2023-08-12T12:27:20;5.97;;;2.70;;
25079;SDS011;13071;48.868;9.996;2023-08-12T12:29:47;5.18;;;2.80;;
25079;SDS011;13071;48.868;9.996;2023-08-12T12:32:17;3.28;;;2.45;;
25079;SDS011;13071;48.868;9.996;2023-08-12T12:34:44;16.90;;;8.02;;
25079;SDS011;13071;48.868;9.996;2023-08-12T12:37:11;3.15;;;2.58;;
25079;SDS011;13071;48.868;9.996;2023-08-12T12:39:38;6.00;;;2.97;;
25079;SDS011;13071;48.868;9.996;2023-08-12T12:42:05;3.83;;;2.97;;
25079;SDS011;13071;48.868;9.996;2023-08-12T12:44:32;2.95;;;2.60;;
25079;SDS011;13071;48.868;9.996;2023-08-12T12:46:58;2.50;;;2.30;;
25079;SDS011;13071;48.868;9.996;2023-08-12T12:49:26;5.35;;;3.08;;
25079;SDS011;13071;48.868;9.996;2023-08-12T12:51:53;11.77;;;3.17;;
25079;SDS011;13071;48.868;9.996;2023-08-12T12:54:20;6.15;;;2.85;;
25079;SDS011;13071;48.868;9.996;2023-08-12T12:56:47;4.70;;;3.25;;
25079;SDS011;13071;48.868;9.996;2023-08-12T12:59:14;4.80;;;2.95;;
25079;SDS011;13071;48.868;9.996;2023-08-12T13:01:41;3.47;;;2.53;;
25079;SDS011;13071;48.868;9.996;2023-08-12T13:04:08;5.78;;;3.00;;
25079;SDS011;13071;48.868;9.996;2023-08-12T13:06:36;2.97;;;2.67;;
25079;SDS011;13071;48.868;9.996;2023-08-12T13:09:02;3.70;;;2.90;;
25079;SDS011;13071;48.868;9.996;2023-08-12T13:11:31;4.97;;;2.72;;
25079;SDS011;13071;48.868;9.996;2023-08-12T13:13:58;4.75;;;2.33;;
25079;SDS011;13071;48.868;9.996;2023-08-12T13:16:25;4.53;;;2.90;;
25079;SDS011;13071;48.868;9.996;2023-08-12T13:18:51;3.20;;;2.90;;
25079;SDS011;13071;48.868;9.996;2023-08-12T13:21:18;4.60;;;3.00;;
25079;SDS011;13071;48.868;9.996;2023-08-12T13:23:55;6.20;;;3.05;;
25079;SDS011;13071;48.868;9.996;2023-08-12T13:26:22;5.65;;;3.08;;
25079;SDS011;13071;48.868;9.996;2023-08-12T13:28:49;7.40;;;3.50;;
25079;SDS011;13071;48.868;9.996;2023-08-12T13:31:15;5.78;;;3.75;;
25079;SDS011;13071;48.868;9.996;2023-08-12T13:33:42;3.45;;;3.15;;
25079;SDS011;13071;48.868;9.996;2023-08-12T13:36:09;5.88;;;3.28;;
25079;SDS011;13071;48.868;9.996;2023-08-12T13:38:36;7.15;;;3.42;;
25079;SDS011;13071;48.868;9.996;2023-08-12T13:41:06;7.55;;;3.17;;
25079;SDS011;13071;48.868;9.996;2023-08-12T13:50:05;3.40;;;2.75;;
25079;SDS011;13071;48.868;9.996;2023-08-12T13:52:32;4.70;;;2.70;;
25079;SDS011;13071;48.868;9.996;2023-08-12T13:55:00;5.05;;;3.25;;
25079;SDS011;13071;48.868;9.996;2023-08-12T13:57:32;3.30;;;2.67;;
25079;SDS011;13071;48.868;9.996;2023-08-12T13:59:58;8.32;;;2.83;;
25079;SDS011;13071;48.868;9.996;2023-08-12T14:02:29;3.88;;;2.65;;
25079;SDS011;13071;48.868;9.996;2023-08-12T14:04:56;3.40;;;2.70;;
25079;SDS011;13071;48.868;9.996;2023-08-12T14:07:24;3.60;;;2.97;;
25079;SDS011;13071;48.868;9.996;2023-08-12T14:09:52;4.28;;;2.72;;
25079;SDS011;13071;48.868;9.996;2023-08-12T14:12:18;3.42;;;2.65;;
25079;SDS011;13071;48.868;9.996;2023-08-12T14:14:46;4.25;;;2.72;;
25079;SDS011;13071;48.868;9.996;2023-08-12T14:17:13;4.32;;;2.80;;
25079;SDS011;13071;48.868;9.996;2023-08-12T14:19:43;2.95;;;2.55;;
25079;SDS011;13071;48.868;9.996;2023-08-12T14:22:09;4.75;;;3.00;;
25079;SDS011;13071;48.868;9.996;2023-08-12T14:24:36;8.30;;;3.60;;
25079;SDS011;13071;48.868;9.996;2023-08-12T14:27:03;4.45;;;3.20;;
25079;SDS011;13071;48.868;9.996;2023-08-12T14:29:30;4.57;;;2.97;;
25079;SDS011;13071;48.868;9.996;2023-08-12T14:31:58;3.97;;;2.70;;
25079;SDS011;13071;48.868;9.996;2023-08-12T14:34:25;3.35;;;2.72;;
25079;SDS011;13071;48.868;9.996;2023-08-12T14:36:51;4.93;;;3.00;;
25079;SDS011;13071;48.868;9.996;2023-08-12T14:39:18;6.57;;;3.13;;
25079;SDS011;13071;48.868;9.996;2023-08-12T14:41:46;5.10;;;3.20;;
25079;SDS011;13071;48.868;9.996;2023-08-12T14:44:13;6.30;;;3.90;;
25079;SDS011;13071;48.868;9.996;2023-08-12T14:46:40;4.65;;;3.42;;
25079;SDS011;13071;48.868;9.996;2023-08-12T14:49:08;6.50;;;3.58;;
25079;SDS011;13071;48.868;9.996;2023-08-12T14:51:35;4.03;;;3.25;;
25079;SDS011;13071;48.868;9.996;2023-08-12T14:54:01;8.57;;;3.50;;
25079;SDS011;13071;48.868;9.996;2023-08-12T14:56:28;4.90;;;3.53;;